createdAt,value
2022-08-27T00:02:02.249Z,2.17
2022-08-27T00:04:29.030Z,2.17
2022-08-27T00:06:56.006Z,2.20
2022-08-27T00:09:26.846Z,2.50
2022-08-27T00:12:02.671Z,2.15
2022-08-27T00:14:31.614Z,2.33
2022-08-27T00:16:58.217Z,2.40
2022-08-27T00:19:27.369Z,2.35
2022-08-27T00:21:55.812Z,2.20
2022-08-27T00:24:22.546Z,2.35
2022-08-27T00:26:53.584Z,2.10
2022-08-27T00:29:21.051Z,2.35
2022-08-27T00:31:51.904Z,2.28
2022-08-27T00:34:23.374Z,2.42
2022-08-27T00:36:50.166Z,2.47
2022-08-27T00:39:16.978Z,2.50
2022-08-27T00:41:45.336Z,2.30
2022-08-27T00:44:13.056Z,2.30
2022-08-27T00:46:55.462Z,2.55
2022-08-27T00:49:40.213Z,2.22
2022-08-27T00:52:24.361Z,2.67
2022-08-27T00:54:57.047Z,2.55
2022-08-27T00:57:34.556Z,2.88
2022-08-27T01:00:05.045Z,3.03
2022-08-27T01:02:32.172Z,2.60
2022-08-27T01:05:03.036Z,2.80
2022-08-27T01:07:33.383Z,2.45
2022-08-27T01:10:02.459Z,3.10
2022-08-27T01:12:31.541Z,3.20
2022-08-27T01:15:02.686Z,2.97
2022-08-27T01:17:29.824Z,3.08
2022-08-27T01:20:02.617Z,2.47
2022-08-27T01:22:53.972Z,3.00
2022-08-27T01:25:23.750Z,2.53
2022-08-27T01:27:52.895Z,3.55
2022-08-27T01:30:21.708Z,3.60
2022-08-27T01:32:51.178Z,3.50
2022-08-27T01:35:20.433Z,3.50
2022-08-27T01:37:50.158Z,3.38
2022-08-27T01:43:01.467Z,3.05
2022-08-27T01:45:41.387Z,3.60
2022-08-27T01:48:08.204Z,3.33
2022-08-27T01:50:38.219Z,3.42
2022-08-27T01:53:08.674Z,3.70
2022-08-27T01:55:35.668Z,2.95
2022-08-27T01:58:02.549Z,2.97
2022-08-27T02:00:39.659Z,2.55
2022-08-27T02:03:07.506Z,3.25
2022-08-27T02:05:44.800Z,2.70
2022-08-27T02:08:18.324Z,2.47
2022-08-27T02:10:47.283Z,2.85
2022-08-27T02:13:14.385Z,2.70
2022-08-27T02:15:42.515Z,2.42
2022-08-27T02:18:11.021Z,2.53
2022-08-27T02:20:40.007Z,2.80
2022-08-27T02:23:09.448Z,3.10
2022-08-27T02:25:36.829Z,3.00
2022-08-27T02:28:07.924Z,2.97
2022-08-27T02:30:37.496Z,2.90
2022-08-27T02:33:06.661Z,2.70
2022-08-27T02:35:40.672Z,2.80
2022-08-27T02:38:10.171Z,3.20
2022-08-27T02:40:37.489Z,3.20
2022-08-27T02:43:07.283Z,2.80
2022-08-27T02:45:35.621Z,3.00
2022-08-27T02:48:02.590Z,2.95
2022-08-27T02:50:41.755Z,2.97
2022-08-27T02:53:09.781Z,2.70
2022-08-27T02:55:37.018Z,2.75
2022-08-27T02:58:09.040Z,2.95
2022-08-27T03:00:36.120Z,2.80
2022-08-27T03:03:03.168Z,2.70
2022-08-27T03:05:31.843Z,3.00
2022-08-27T03:08:00.143Z,2.60
2022-08-27T03:10:26.736Z,3.25
2022-08-27T03:12:53.617Z,2.63
2022-08-27T03:15:20.387Z,2.92
2022-08-27T03:18:07.808Z,3.13
2022-08-27T03:20:40.317Z,3.00
2022-08-27T03:23:12.621Z,2.65
2022-08-27T03:25:39.299Z,2.97
2022-08-27T03:28:06.482Z,3.10
2022-08-27T03:31:00.604Z,2.83
2022-08-27T03:33:29.089Z,3.13
2022-08-27T03:35:55.965Z,2.80
2022-08-27T03:38:27.403Z,2.63
2022-08-27T03:40:54.308Z,3.08
2022-08-27T03:43:22.529Z,3.10
2022-08-27T03:46:01.279Z,3.10
2022-08-27T03:48:30.359Z,3.10
2022-08-27T03:50:59.489Z,3.03
2022-08-27T03:53:28.371Z,3.50
2022-08-27T03:55:54.918Z,3.00
2022-08-27T03:58:21.597Z,3.38
2022-08-27T04:00:48.562Z,3.58
2022-08-27T04:03:15.238Z,3.70
2022-08-27T04:05:47.417Z,3.65
2022-08-27T04:08:13.945Z,3.22
2022-08-27T04:10:41.648Z,3.10
2022-08-27T04:13:08.506Z,3.25
2022-08-27T04:15:37.840Z,3.55
2022-08-27T04:18:07.573Z,3.30
2022-08-27T04:20:35.766Z,3.15
2022-08-27T04:23:03.320Z,3.22
2022-08-27T04:25:31.868Z,2.95
2022-08-27T04:28:00.955Z,3.30
2022-08-27T04:30:27.590Z,3.20
2022-08-27T04:32:54.497Z,3.15
2022-08-27T04:35:22.846Z,2.97
2022-08-27T04:37:49.653Z,2.85
2022-08-27T04:40:16.321Z,3.10
2022-08-27T04:42:43.162Z,3.25
2022-08-27T04:45:10.298Z,2.92
2022-08-27T04:47:37.037Z,3.17
2022-08-27T04:50:05.976Z,3.35
2022-08-27T04:52:33.338Z,3.53
2022-08-27T04:55:11.805Z,3.03
2022-08-27T04:57:38.683Z,3.05
2022-08-27T05:00:07.632Z,3.00
2022-08-27T05:02:34.367Z,2.95
2022-08-27T05:05:00.937Z,3.20
2022-08-27T05:07:27.506Z,3.40
2022-08-27T05:09:58.892Z,3.13
2022-08-27T05:12:25.599Z,3.20
2022-08-27T05:14:54.556Z,3.58
2022-08-27T05:17:23.673Z,3.00
2022-08-27T05:19:52.171Z,3.25
2022-08-27T05:22:18.735Z,3.28
2022-08-27T05:24:49.947Z,3.63
2022-08-27T05:27:17.738Z,3.38
2022-08-27T05:29:44.711Z,3.40
2022-08-27T05:32:13.513Z,3.15
2022-08-27T05:34:40.159Z,3.30
2022-08-27T05:37:06.950Z,3.03
2022-08-27T05:39:33.613Z,3.42
2022-08-27T05:42:00.193Z,3.10
2022-08-27T05:44:42.418Z,3.70
2022-08-27T05:47:11.604Z,3.28
2022-08-27T05:49:38.170Z,3.30
2022-08-27T05:52:08.868Z,3.60
2022-08-27T05:54:41.660Z,3.33
2022-08-27T05:57:08.707Z,3.53
2022-08-27T05:59:54.197Z,3.17
2022-08-27T06:02:27.330Z,3.22
2022-08-27T06:04:54.098Z,3.65
2022-08-27T06:07:20.987Z,3.80
2022-08-27T06:09:47.690Z,3.63
2022-08-27T06:12:14.387Z,3.42
2022-08-27T06:14:41.223Z,3.55
2022-08-27T06:17:15.484Z,3.70
2022-08-27T06:19:48.001Z,3.70
2022-08-27T06:22:15.055Z,3.00
2022-08-27T06:24:44.436Z,3.40
2022-08-27T06:27:14.745Z,3.47
2022-08-27T06:29:42.095Z,3.10
2022-08-27T06:32:11.386Z,3.80
2022-08-27T06:34:38.676Z,3.33
2022-08-27T06:37:07.621Z,3.63
2022-08-27T06:39:38.503Z,2.88
2022-08-27T06:42:06.791Z,2.90
2022-08-27T06:44:33.876Z,3.00
2022-08-27T06:47:06.977Z,3.10
2022-08-27T06:49:33.792Z,3.40
2022-08-27T06:52:00.733Z,6.57
2022-08-27T06:54:27.513Z,6.40
2022-08-27T06:56:54.065Z,5.15
2022-08-27T06:59:21.150Z,5.50
2022-08-27T07:01:51.400Z,5.45
2022-08-27T07:04:32.317Z,5.20
2022-08-27T07:07:00.312Z,4.43
2022-08-27T07:09:32.603Z,5.47
2022-08-27T07:12:00.140Z,4.82
2022-08-27T07:14:27.630Z,4.03
2022-08-27T07:16:54.246Z,4.47
2022-08-27T07:19:21.015Z,4.53
2022-08-27T07:21:48.629Z,4.53
2022-08-27T07:24:15.443Z,4.90
2022-08-27T07:26:44.043Z,4.95
2022-08-27T07:29:16.674Z,4.53
2022-08-27T07:31:43.775Z,3.95
2022-08-27T07:34:19.535Z,4.55
2022-08-27T07:36:46.205Z,4.40
2022-08-27T07:39:15.744Z,4.63
2022-08-27T07:42:06.590Z,3.90
2022-08-27T07:44:34.459Z,3.85
2022-08-27T07:47:02.466Z,3.72
2022-08-27T07:49:30.233Z,3.72
2022-08-27T07:51:57.059Z,3.80
2022-08-27T07:54:26.585Z,4.10
2022-08-27T07:56:56.436Z,3.80
2022-08-27T07:59:27.255Z,3.75
2022-08-27T08:01:56.192Z,3.30
2022-08-27T08:04:28.341Z,3.60
2022-08-27T08:06:55.948Z,3.03
2022-08-27T08:09:24.107Z,3.97
2022-08-27T08:11:54.243Z,3.67
2022-08-27T08:14:21.354Z,3.58
2022-08-27T08:16:50.143Z,3.65
2022-08-27T08:19:17.337Z,3.00
2022-08-27T08:21:43.958Z,3.58
2022-08-27T08:24:10.729Z,3.25
2022-08-27T08:26:43.857Z,3.10
2022-08-27T08:29:12.237Z,2.90
2022-08-27T08:31:51.224Z,2.60
2022-08-27T08:34:19.907Z,2.88
2022-08-27T08:36:53.813Z,2.85
2022-08-27T08:39:22.042Z,2.67
2022-08-27T08:42:01.187Z,2.78
2022-08-27T08:44:45.376Z,2.60
2022-08-27T08:47:16.755Z,2.38
2022-08-27T08:50:19.955Z,2.50
2022-08-27T08:53:11.051Z,2.40
2022-08-27T08:55:43.420Z,2.05
2022-08-27T08:58:18.919Z,2.50
2022-08-27T09:03:16.345Z,2.00
2022-08-27T09:05:50.646Z,2.40
2022-08-27T09:08:37.718Z,1.92
2022-08-27T09:11:41.367Z,2.13
2022-08-27T09:14:36.499Z,2.22
2022-08-27T09:17:10.784Z,2.40
2022-08-27T09:19:40.551Z,2.30
2022-08-27T09:22:48.735Z,2.30
2022-08-27T09:25:23.161Z,2.05
2022-08-27T09:27:55.197Z,2.30
2022-08-27T09:30:29.839Z,2.20
2022-08-27T09:35:34.669Z,2.22
2022-08-27T09:38:02.734Z,2.05
2022-08-27T09:40:33.648Z,2.15
2022-08-27T09:43:20.569Z,2.13
2022-08-27T09:45:59.502Z,2.00
2022-08-27T09:48:37.574Z,2.03
2022-08-27T09:51:10.621Z,1.95
2022-08-27T09:53:44.199Z,1.88
2022-08-27T09:56:29.892Z,1.88
2022-08-27T09:59:08.325Z,1.92
2022-08-27T10:01:49.230Z,2.05
2022-08-27T10:04:25.425Z,1.70
2022-08-27T10:06:55.048Z,1.90
2022-08-27T10:09:38.466Z,1.98
2022-08-27T10:12:19.361Z,1.90
2022-08-27T10:14:53.152Z,1.85
2022-08-27T10:17:47.491Z,1.95
2022-08-27T10:20:25.798Z,1.60
2022-08-27T10:23:39.138Z,1.63
2022-08-27T10:26:33.759Z,1.40
2022-08-27T10:29:12.113Z,1.67
2022-08-27T10:31:49.381Z,1.55
2022-08-27T10:34:27.710Z,1.85
2022-08-27T10:37:36.612Z,1.70
2022-08-27T10:40:20.810Z,1.80
2022-08-27T10:42:57.702Z,1.65
2022-08-27T10:45:42.611Z,1.85
2022-08-27T10:48:18.192Z,1.40
2022-08-27T10:50:50.569Z,1.65
2022-08-27T10:53:49.579Z,1.40
2022-08-27T10:56:24.929Z,1.70
2022-08-27T11:01:47.784Z,1.30
2022-08-27T11:04:48.682Z,1.50
2022-08-27T11:07:22.145Z,1.40
2022-08-27T11:10:03.223Z,1.20
2022-08-27T11:12:37.533Z,1.20
2022-08-27T11:15:13.010Z,1.40
2022-08-27T11:17:50.534Z,1.45
2022-08-27T11:20:39.333Z,1.30
2022-08-27T11:23:19.407Z,1.67
2022-08-27T11:25:58.359Z,1.40
2022-08-27T11:28:45.715Z,1.42
2022-08-27T11:31:33.892Z,1.70
2022-08-27T11:34:25.659Z,1.52
2022-08-27T11:37:28.258Z,1.70
2022-08-27T11:40:15.724Z,1.45
2022-08-27T11:42:51.792Z,1.60
2022-08-27T11:45:20.795Z,1.60
2022-08-27T11:47:59.290Z,1.63
2022-08-27T11:50:30.914Z,1.50
2022-08-27T11:53:06.283Z,1.48
2022-08-27T11:55:38.443Z,1.48
2022-08-27T11:58:26.291Z,1.77
2022-08-27T12:00:53.938Z,1.58
2022-08-27T12:03:26.868Z,1.60
2022-08-27T12:05:55.555Z,1.75
2022-08-27T12:08:24.335Z,1.60
2022-08-27T12:11:09.536Z,1.75
2022-08-27T12:13:53.777Z,1.52
2022-08-27T12:16:39.014Z,1.90
2022-08-27T12:19:28.957Z,1.77
2022-08-27T12:22:27.751Z,1.90
2022-08-27T12:24:58.007Z,1.50
2022-08-27T12:27:24.662Z,1.95
2022-08-27T12:30:12.920Z,1.77
2022-08-27T12:32:44.353Z,1.80
2022-08-27T12:35:32.924Z,1.70
2022-08-27T12:38:32.664Z,1.55
2022-08-27T12:41:05.860Z,1.50
2022-08-27T12:43:35.272Z,1.30
2022-08-27T12:46:11.284Z,1.60
2022-08-27T12:48:44.140Z,1.70
2022-08-27T12:51:23.762Z,1.60
2022-08-27T12:54:29.923Z,1.42
2022-08-27T12:57:29.524Z,1.80
2022-08-27T13:00:13.707Z,1.63
2022-08-27T13:05:38.980Z,1.90
2022-08-27T13:08:06.166Z,1.40
2022-08-27T13:10:32.984Z,1.45
2022-08-27T13:13:18.870Z,1.30
2022-08-27T13:15:58.723Z,1.40
2022-08-27T13:18:30.024Z,1.70
2022-08-27T13:21:21.340Z,1.70
2022-08-27T13:23:56.270Z,1.58
2022-08-27T13:26:25.870Z,1.55
2022-08-27T13:28:54.172Z,1.60
2022-08-27T13:31:23.401Z,1.52
2022-08-27T13:33:52.621Z,1.70
2022-08-27T13:36:34.225Z,1.60
2022-08-27T13:39:02.988Z,1.60
2022-08-27T13:41:35.629Z,1.80
2022-08-27T13:44:09.460Z,2.10
2022-08-27T13:47:00.554Z,2.25
2022-08-27T13:49:30.998Z,2.08
2022-08-27T13:52:01.645Z,2.10
2022-08-27T13:54:29.360Z,2.20
2022-08-27T13:57:08.599Z,2.00
2022-08-27T13:59:41.948Z,1.98
2022-08-27T14:02:09.933Z,2.10
2022-08-27T14:04:48.891Z,1.83
2022-08-27T14:07:23.709Z,2.03
2022-08-27T14:09:57.328Z,2.20
2022-08-27T14:12:32.628Z,1.70
2022-08-27T14:15:20.181Z,2.10
2022-08-27T14:17:49.109Z,2.00
2022-08-27T14:20:17.906Z,1.83
2022-08-27T14:22:45.529Z,2.20
2022-08-27T14:25:14.606Z,1.92
2022-08-27T14:27:41.980Z,1.60
2022-08-27T14:30:21.514Z,2.05
2022-08-27T14:32:59.463Z,1.90
2022-08-27T14:35:27.875Z,1.80
2022-08-27T14:37:54.745Z,1.90
2022-08-27T14:40:21.741Z,1.67
2022-08-27T14:42:50.986Z,1.92
2022-08-27T14:45:18.474Z,2.20
2022-08-27T14:47:45.390Z,2.30
2022-08-27T14:50:15.422Z,2.60
2022-08-27T14:52:42.345Z,2.40
2022-08-27T14:55:11.028Z,2.30
2022-08-27T14:57:39.845Z,2.42
2022-08-27T15:00:08.176Z,2.15
2022-08-27T15:02:35.395Z,2.30
2022-08-27T15:05:11.911Z,2.08
2022-08-27T15:07:39.471Z,1.92
2022-08-27T15:10:12.082Z,2.78
2022-08-27T15:12:39.555Z,2.70
2022-08-27T15:15:08.133Z,3.25
2022-08-27T15:17:35.863Z,3.20
2022-08-27T15:20:09.236Z,3.40
2022-08-27T15:22:44.090Z,3.33
2022-08-27T15:25:13.307Z,3.13
2022-08-27T15:27:40.135Z,2.70
2022-08-27T15:30:10.140Z,2.95
2022-08-27T15:32:40.531Z,3.13
2022-08-27T15:35:12.467Z,2.97
2022-08-27T15:37:39.429Z,2.58
2022-08-27T15:40:09.264Z,2.67
2022-08-27T15:42:36.238Z,2.55
2022-08-27T15:45:03.695Z,2.80
2022-08-27T15:47:30.306Z,3.00
2022-08-27T15:49:57.204Z,3.28
2022-08-27T15:52:24.112Z,2.90
2022-08-27T15:54:52.502Z,2.95
2022-08-27T15:57:20.756Z,3.08
2022-08-27T15:59:48.807Z,3.40
2022-08-27T16:02:19.551Z,3.25
2022-08-27T16:04:49.263Z,3.25
2022-08-27T16:07:20.140Z,3.42
2022-08-27T16:09:48.093Z,3.50
2022-08-27T16:12:26.980Z,3.92
2022-08-27T16:14:55.392Z,3.33
2022-08-27T16:17:30.819Z,3.70
2022-08-27T16:19:57.483Z,3.80
2022-08-27T16:22:24.352Z,3.83
2022-08-27T16:24:51.073Z,4.07
2022-08-27T16:27:17.936Z,3.75
2022-08-27T16:29:44.547Z,3.47
2022-08-27T16:32:18.947Z,3.92
2022-08-27T16:34:47.446Z,3.65
2022-08-27T16:37:23.888Z,3.05
2022-08-27T16:39:50.703Z,3.28
2022-08-27T16:42:22.407Z,2.88
2022-08-27T16:44:49.180Z,2.72
2022-08-27T16:47:16.149Z,2.70
2022-08-27T16:50:01.499Z,2.75
2022-08-27T16:52:28.903Z,2.40
2022-08-27T16:54:56.876Z,2.60
2022-08-27T16:57:27.904Z,2.85
2022-08-27T16:59:55.140Z,2.80
2022-08-27T17:02:30.503Z,2.40
2022-08-27T17:05:07.319Z,2.60
2022-08-27T17:07:50.882Z,2.28
2022-08-27T17:10:18.596Z,2.53
2022-08-27T17:12:48.099Z,2.47
2022-08-27T17:15:16.825Z,2.30
2022-08-27T17:17:43.821Z,2.50
2022-08-27T17:20:10.778Z,2.88
2022-08-27T17:22:37.677Z,2.15
2022-08-27T17:25:04.649Z,2.72
2022-08-27T17:27:31.204Z,2.60
2022-08-27T17:29:59.710Z,2.63
2022-08-27T17:32:26.696Z,2.50
2022-08-27T17:34:53.572Z,2.67
2022-08-27T17:37:22.453Z,2.05
2022-08-27T17:39:49.002Z,2.00
2022-08-27T17:42:15.573Z,2.20
2022-08-27T17:44:48.784Z,2.10
2022-08-27T17:47:15.309Z,2.00
2022-08-27T17:49:42.140Z,1.88
2022-08-27T17:52:13.161Z,1.95
2022-08-27T17:54:43.661Z,1.90
2022-08-27T17:57:28.310Z,1.70
2022-08-27T17:59:59.501Z,1.77
2022-08-27T18:02:40.521Z,1.92
2022-08-27T18:05:10.606Z,2.00
2022-08-27T18:07:40.039Z,1.88
2022-08-27T18:10:07.930Z,1.92
2022-08-27T18:12:34.547Z,2.10
2022-08-27T18:15:26.197Z,2.10
2022-08-27T18:17:56.068Z,1.85
2022-08-27T18:20:24.975Z,2.03
2022-08-27T18:22:52.288Z,2.10
2022-08-27T18:25:24.570Z,2.20
2022-08-27T18:27:58.690Z,2.58
2022-08-27T18:30:31.484Z,2.42
2022-08-27T18:32:58.624Z,2.38
2022-08-27T18:35:29.038Z,2.50
2022-08-27T18:37:55.751Z,2.83
2022-08-27T18:40:25.564Z,2.40
2022-08-27T18:43:03.084Z,2.00
2022-08-27T18:45:33.251Z,2.05
2022-08-27T18:48:00.293Z,2.30
2022-08-27T18:50:29.390Z,2.40
2022-08-27T18:52:57.267Z,1.90
2022-08-27T18:55:28.082Z,1.88
2022-08-27T18:57:59.483Z,2.10
2022-08-27T19:00:26.088Z,1.90
2022-08-27T19:02:53.519Z,2.15
2022-08-27T19:05:28.084Z,1.98
2022-08-27T19:07:58.365Z,1.90
2022-08-27T19:10:27.366Z,1.73
2022-08-27T19:12:54.406Z,1.90
2022-08-27T19:15:21.429Z,2.00
2022-08-27T19:17:53.291Z,2.47
2022-08-27T19:20:22.394Z,2.40
2022-08-27T19:22:49.249Z,2.67
2022-08-27T19:25:16.842Z,2.60
2022-08-27T19:27:46.362Z,2.55
2022-08-27T19:30:14.396Z,2.60
2022-08-27T19:32:41.075Z,2.40
2022-08-27T19:35:08.500Z,2.35
2022-08-27T19:37:42.569Z,2.28
2022-08-27T19:40:11.104Z,2.40
2022-08-27T19:42:39.187Z,2.67
2022-08-27T19:45:06.459Z,2.75
2022-08-27T19:47:38.369Z,2.30
2022-08-27T19:50:05.678Z,2.72
2022-08-27T19:52:32.287Z,2.90
2022-08-27T19:55:13.590Z,2.90
2022-08-27T19:57:41.381Z,2.95
2022-08-27T20:00:12.478Z,2.83
2022-08-27T20:02:40.927Z,3.17
2022-08-27T20:05:17.833Z,3.25
2022-08-27T20:07:51.452Z,3.40
2022-08-27T20:10:25.752Z,3.75
2022-08-27T20:13:01.769Z,3.55
2022-08-27T20:15:28.316Z,3.55
2022-08-27T20:17:55.251Z,3.85
2022-08-27T20:20:24.884Z,3.70
2022-08-27T20:22:52.349Z,3.40
2022-08-27T20:25:19.604Z,3.13
2022-08-27T20:27:49.469Z,4.10
2022-08-27T20:30:17.952Z,3.60
2022-08-27T20:32:46.764Z,3.75
2022-08-27T20:35:13.828Z,3.35
2022-08-27T20:37:42.388Z,3.40
2022-08-27T20:40:12.965Z,3.17
2022-08-27T20:42:41.409Z,2.83
2022-08-27T20:45:12.591Z,3.00
2022-08-27T20:47:41.187Z,3.03
2022-08-27T20:50:12.013Z,3.50
2022-08-27T20:52:39.449Z,3.15
2022-08-27T20:55:06.971Z,3.13
2022-08-27T20:57:33.631Z,2.83
2022-08-27T21:00:19.381Z,3.30
2022-08-27T21:02:46.869Z,2.83
2022-08-27T21:05:16.944Z,3.05
2022-08-27T21:07:44.653Z,3.08
2022-08-27T21:10:13.438Z,3.00
2022-08-27T21:12:40.121Z,3.25
2022-08-27T21:15:08.727Z,3.08
2022-08-27T21:17:37.621Z,3.10
2022-08-27T21:20:08.772Z,2.97
2022-08-27T21:22:35.547Z,2.90
2022-08-27T21:25:06.543Z,3.00
2022-08-27T21:27:33.115Z,3.13
2022-08-27T21:29:59.857Z,3.42
2022-08-27T21:32:26.596Z,3.40
2022-08-27T21:34:54.949Z,3.35
2022-08-27T21:37:21.639Z,3.40
2022-08-27T21:39:48.358Z,3.28
2022-08-27T21:42:15.731Z,3.40
2022-08-27T21:44:42.656Z,2.53
2022-08-27T21:47:09.605Z,3.00
2022-08-27T21:49:36.252Z,2.88
2022-08-27T21:52:06.054Z,3.08
2022-08-27T21:54:38.580Z,3.03
2022-08-27T21:57:05.820Z,3.08
2022-08-27T21:59:38.635Z,3.17
2022-08-27T22:02:23.046Z,3.15
2022-08-27T22:04:51.965Z,3.63
2022-08-27T22:07:20.481Z,3.88
2022-08-27T22:09:50.510Z,4.13
2022-08-27T22:12:17.101Z,4.40
2022-08-27T22:14:43.685Z,4.13
2022-08-27T22:17:10.338Z,3.90
2022-08-27T22:19:36.859Z,4.05
2022-08-27T22:22:12.027Z,3.85
2022-08-27T22:24:38.562Z,3.53
2022-08-27T22:27:05.156Z,3.70
2022-08-27T22:29:33.492Z,4.30
2022-08-27T22:32:00.134Z,3.95
2022-08-27T22:34:28.824Z,4.07
2022-08-27T22:36:55.488Z,3.72
2022-08-27T22:39:22.075Z,4.05
2022-08-27T22:41:51.095Z,3.58
2022-08-27T22:44:26.972Z,3.78
2022-08-27T22:46:55.053Z,3.17
2022-08-27T22:49:21.757Z,3.28
2022-08-27T22:51:49.654Z,3.53
2022-08-27T22:54:17.757Z,3.20
2022-08-27T22:56:44.599Z,3.45
2022-08-27T22:59:11.268Z,3.40
2022-08-27T23:01:38.133Z,3.22
2022-08-27T23:04:06.554Z,3.38
2022-08-27T23:06:36.437Z,3.05
2022-08-27T23:09:06.593Z,3.00
2022-08-27T23:11:34.428Z,3.13
2022-08-27T23:14:01.178Z,2.70
2022-08-27T23:16:28.706Z,2.80
2022-08-27T23:18:55.254Z,3.00
2022-08-27T23:21:22.013Z,3.47
2022-08-27T23:23:49.202Z,2.97
2022-08-27T23:26:36.190Z,2.97
2022-08-27T23:29:03.016Z,3.20
2022-08-27T23:31:29.614Z,3.67
2022-08-27T23:33:57.576Z,3.75
2022-08-27T23:36:24.692Z,3.78
2022-08-27T23:38:51.259Z,3.40
2022-08-27T23:41:19.567Z,3.55
2022-08-27T23:43:46.587Z,3.35
2022-08-27T23:46:13.533Z,3.42
2022-08-27T23:48:40.711Z,3.58
2022-08-27T23:51:09.185Z,3.00
2022-08-27T23:53:37.614Z,2.85
2022-08-27T23:56:05.227Z,3.40
2022-08-27T23:58:32.766Z,3.03
